<?xml version="1.0" encoding="UTF-8" standalone="no" ?>
<gpx xmlns="http://www.topografix.com/GPX/1/1" xmlns:xsi="http://www.w3.org/2001/XMLSchema-instance" xsi:schemaLocation="http://www.topografix.com/GPX/1/1 http://www.topografix.com/GPX/1/1/gpx.xsd" version="1.1" creator="VisuGPX - https://www.visugpx.com">
  <metadata>
    <name>Argentina</name>
    <desc><![CDATA[Downloaded from eMap Software Version 2.75]]></desc>
  </metadata>
  <trk>
    <name><![CDATA[Argentina_64]]></name>
    <extensions>
      <line xmlns="http://www.topografix.com/GPX/gpx_style/0/2">
        <color>ff0000</color>
        <opacity>0.78</opacity>
        <width>0.6000</width>
      </line>
    </extensions>
    <trkseg>
      <trkpt lat="-25.74723" lon="-54.53976">
        <ele>204.898071</ele>
        <time>2005-12-13T12:23:32Z</time>
      </trkpt>
      <trkpt lat="-25.74678" lon="-54.53961">
        <ele>205.859497</ele>
        <time>2005-12-13T12:23:34Z</time>
      </trkpt>
      <trkpt lat="-25.74534" lon="-54.53849">
        <ele>207.782104</ele>
        <time>2005-12-13T12:23:42Z</time>
      </trkpt>
      <trkpt lat="-25.74277" lon="-54.53643">
        <ele>224.124512</ele>
        <time>2005-12-13T12:23:58Z</time>
      </trkpt>
      <trkpt lat="-25.74114" lon="-54.53532">
        <ele>234.218384</ele>
        <time>2005-12-13T12:24:09Z</time>
      </trkpt>
      <trkpt lat="-25.73901" lon="-54.53455">
        <ele>244.312256</ele>
        <time>2005-12-13T12:24:21Z</time>
      </trkpt>
      <trkpt lat="-25.73331" lon="-54.53304">
        <ele>242.389648</ele>
        <time>2005-12-13T12:24:49Z</time>
      </trkpt>
      <trkpt lat="-25.73198" lon="-54.5327">
        <ele>242.389648</ele>
        <time>2005-12-13T12:24:55Z</time>
      </trkpt>
      <trkpt lat="-25.73011" lon="-54.53139">
        <ele>247.676758</ele>
        <time>2005-12-13T12:25:04Z</time>
      </trkpt>
      <trkpt lat="-25.72642" lon="-54.52824">
        <ele>243.35083</ele>
        <time>2005-12-13T12:25:23Z</time>
      </trkpt>
      <trkpt lat="-25.72262" lon="-54.52487">
        <ele>230.85376</ele>
        <time>2005-12-13T12:25:43Z</time>
      </trkpt>
      <trkpt lat="-25.71724" lon="-54.52017">
        <ele>234.218384</ele>
        <time>2005-12-13T12:26:12Z</time>
      </trkpt>
      <trkpt lat="-25.7123" lon="-54.51817">
        <ele>235.179688</ele>
        <time>2005-12-13T12:26:34Z</time>
      </trkpt>
      <trkpt lat="-25.70213" lon="-54.51433">
        <ele>229.411743</ele>
        <time>2005-12-13T12:27:19Z</time>
      </trkpt>
      <trkpt lat="-25.70123" lon="-54.51418">
        <ele>229.411743</ele>
        <time>2005-12-13T12:27:23Z</time>
      </trkpt>
      <trkpt lat="-25.69625" lon="-54.51435">
        <ele>238.063599</ele>
        <time>2005-12-13T12:27:46Z</time>
      </trkpt>
    </trkseg>
  </trk>
</gpx>